sensor_id;sensor_type;location;lat;lon;timestamp;P1;durP1;ratioP1;P2;durP2;ratioP2
20241;SDS011;10279;46.388;8.116;2023-03-01T00:01:07;0.90;;;0.50;;
20241;SDS011;10279;46.388;8.116;2023-03-01T00:03:39;0.53;;;0.50;;
20241;SDS011;10279;46.388;8.116;2023-03-01T00:06:07;0.53;;;0.50;;
20241;SDS011;10279;46.388;8.116;2023-03-01T00:08:35;0.77;;;0.40;;
20241;SDS011;10279;46.388;8.116;2023-03-01T00:11:16;0.53;;;0.53;;
20241;SDS011;10279;46.388;8.116;2023-03-01T00:13:45;0.63;;;0.50;;
20241;SDS011;10279;46.388;8.116;2023-03-01T00:16:21;0.30;;;0.30;;
20241;SDS011;10279;46.388;8.116;2023-03-01T00:18:57;1.00;;;0.73;;
20241;SDS011;10279;46.388;8.116;2023-03-01T00:21:24;1.27;;;0.43;;
20241;SDS011;10279;46.388;8.116;2023-03-01T00:23:52;0.57;;;0.50;;
20241;SDS011;10279;46.388;8.116;2023-03-01T00:26:21;1.20;;;0.50;;
20241;SDS011;10279;46.388;8.116;2023-03-01T00:28:50;0.80;;;0.60;;
20241;SDS011;10279;46.388;8.116;2023-03-01T00:31:18;0.67;;;0.50;;
20241;SDS011;10279;46.388;8.116;2023-03-01T00:33:47;0.47;;;0.40;;
20241;SDS011;10279;46.388;8.116;2023-03-01T00:36:15;0.40;;;0.40;;
20241;SDS011;10279;46.388;8.116;2023-03-01T00:38:43;0.50;;;0.50;;
20241;SDS011;10279;46.388;8.116;2023-03-01T00:41:12;0.53;;;0.53;;
20241;SDS011;10279;46.388;8.116;2023-03-01T00:43:42;1.80;;;0.73;;
20241;SDS011;10279;46.388;8.116;2023-03-01T00:46:10;2.10;;;0.90;;
20241;SDS011;10279;46.388;8.116;2023-03-01T00:48:39;2.47;;;1.83;;
20241;SDS011;10279;46.388;8.116;2023-03-01T00:51:07;3.27;;;1.70;;
20241;SDS011;10279;46.388;8.116;2023-03-01T00:53:36;3.20;;;2.47;;
20241;SDS011;10279;46.388;8.116;2023-03-01T00:56:03;2.97;;;2.40;;
20241;SDS011;10279;46.388;8.116;2023-03-01T00:58:32;4.00;;;2.50;;
20241;SDS011;10279;46.388;8.116;2023-03-01T01:00:59;5.60;;;3.40;;
20241;SDS011;10279;46.388;8.116;2023-03-01T01:03:27;3.20;;;2.63;;
20241;SDS011;10279;46.388;8.116;2023-03-01T01:05:54;6.77;;;4.80;;
20241;SDS011;10279;46.388;8.116;2023-03-01T01:08:22;6.20;;;4.30;;
20241;SDS011;10279;46.388;8.116;2023-03-01T01:10:49;5.10;;;3.00;;
20241;SDS011;10279;46.388;8.116;2023-03-01T01:13:16;7.07;;;4.57;;
20241;SDS011;10279;46.388;8.116;2023-03-01T01:15:44;5.17;;;3.83;;
20241;SDS011;10279;46.388;8.116;2023-03-01T01:18:11;6.50;;;4.43;;
20241;SDS011;10279;46.388;8.116;2023-03-01T01:20:39;6.67;;;4.50;;
20241;SDS011;10279;46.388;8.116;2023-03-01T01:23:06;5.10;;;3.40;;
20241;SDS011;10279;46.388;8.116;2023-03-01T01:25:34;7.20;;;3.93;;
20241;SDS011;10279;46.388;8.116;2023-03-01T01:28:03;4.67;;;3.70;;
20241;SDS011;10279;46.388;8.116;2023-03-01T01:30:30;6.13;;;4.30;;
20241;SDS011;10279;46.388;8.116;2023-03-01T01:32:58;7.43;;;5.30;;
20241;SDS011;10279;46.388;8.116;2023-03-01T01:35:25;6.73;;;4.57;;
20241;SDS011;10279;46.388;8.116;2023-03-01T01:37:53;4.40;;;2.93;;
20241;SDS011;10279;46.388;8.116;2023-03-01T01:40:20;4.93;;;2.93;;
20241;SDS011;10279;46.388;8.116;2023-03-01T01:42:47;2.20;;;1.77;;
20241;SDS011;10279;46.388;8.116;2023-03-01T01:45:26;1.97;;;1.30;;
20241;SDS011;10279;46.388;8.116;2023-03-01T01:47:54;4.97;;;3.70;;
20241;SDS011;10279;46.388;8.116;2023-03-01T01:50:23;14.53;;;7.43;;
20241;SDS011;10279;46.388;8.116;2023-03-01T01:52:50;4.10;;;3.03;;
20241;SDS011;10279;46.388;8.116;2023-03-01T01:55:19;5.83;;;3.60;;
20241;SDS011;10279;46.388;8.116;2023-03-01T01:57:51;6.83;;;5.10;;
20241;SDS011;10279;46.388;8.116;2023-03-01T02:00:21;8.97;;;7.07;;
20241;SDS011;10279;46.388;8.116;2023-03-01T02:02:50;8.67;;;5.83;;
20241;SDS011;10279;46.388;8.116;2023-03-01T02:05:26;7.30;;;5.43;;
20241;SDS011;10279;46.388;8.116;2023-03-01T02:07:56;6.33;;;4.20;;
20241;SDS011;10279;46.388;8.116;2023-03-01T02:10:24;3.87;;;3.00;;
20241;SDS011;10279;46.388;8.116;2023-03-01T02:12:52;5.47;;;3.97;;
20241;SDS011;10279;46.388;8.116;2023-03-01T02:15:21;4.07;;;2.63;;
20241;SDS011;10279;46.388;8.116;2023-03-01T02:17:49;6.37;;;4.53;;
20241;SDS011;10279;46.388;8.116;2023-03-01T02:20:28;6.43;;;4.23;;
20241;SDS011;10279;46.388;8.116;2023-03-01T02:22:58;10.43;;;6.17;;
20241;SDS011;10279;46.388;8.116;2023-03-01T02:28:24;4.60;;;3.40;;
20241;SDS011;10279;46.388;8.116;2023-03-01T02:30:51;4.23;;;3.20;;
20241;SDS011;10279;46.388;8.116;2023-03-01T02:33:39;7.10;;;5.10;;
20241;SDS011;10279;46.388;8.116;2023-03-01T02:36:17;8.60;;;6.73;;
20241;SDS011;10279;46.388;8.116;2023-03-01T02:38:46;10.60;;;7.30;;
20241;SDS011;10279;46.388;8.116;2023-03-01T02:41:14;12.30;;;8.40;;
20241;SDS011;10279;46.388;8.116;2023-03-01T02:43:42;9.83;;;6.77;;
20241;SDS011;10279;46.388;8.116;2023-03-01T02:46:20;8.43;;;6.10;;
20241;SDS011;10279;46.388;8.116;2023-03-01T02:48:49;9.13;;;6.80;;
20241;SDS011;10279;46.388;8.116;2023-03-01T02:51:31;13.53;;;7.63;;
20241;SDS011;10279;46.388;8.116;2023-03-01T02:56:30;9.90;;;7.60;;
20241;SDS011;10279;46.388;8.116;2023-03-01T02:58:58;11.63;;;8.57;;
20241;SDS011;10279;46.388;8.116;2023-03-01T03:01:27;8.43;;;6.77;;
20241;SDS011;10279;46.388;8.116;2023-03-01T03:04:04;12.40;;;8.00;;
20241;SDS011;10279;46.388;8.116;2023-03-01T03:06:31;10.93;;;8.10;;
20241;SDS011;10279;46.388;8.116;2023-03-01T03:08:59;13.13;;;7.77;;
20241;SDS011;10279;46.388;8.116;2023-03-01T03:11:28;13.03;;;8.50;;
20241;SDS011;10279;46.388;8.116;2023-03-01T03:13:56;12.50;;;8.90;;
20241;SDS011;10279;46.388;8.116;2023-03-01T03:16:24;13.57;;;8.17;;
20241;SDS011;10279;46.388;8.116;2023-03-01T03:18:51;12.67;;;9.10;;
20241;SDS011;10279;46.388;8.116;2023-03-01T03:21:18;11.77;;;8.00;;
20241;SDS011;10279;46.388;8.116;2023-03-01T03:23:46;14.53;;;9.27;;
20241;SDS011;10279;46.388;8.116;2023-03-01T03:26:13;14.03;;;9.37;;
20241;SDS011;10279;46.388;8.116;2023-03-01T03:28:41;16.07;;;10.57;;
20241;SDS011;10279;46.388;8.116;2023-03-01T03:31:08;16.07;;;10.80;;
20241;SDS011;10279;46.388;8.116;2023-03-01T03:33:36;12.63;;;8.90;;
20241;SDS011;10279;46.388;8.116;2023-03-01T03:36:04;14.53;;;9.77;;
20241;SDS011;10279;46.388;8.116;2023-03-01T03:38:31;14.93;;;8.80;;
20241;SDS011;10279;46.388;8.116;2023-03-01T03:41:00;10.70;;;7.07;;
20241;SDS011;10279;46.388;8.116;2023-03-01T03:43:29;8.83;;;6.23;;
20241;SDS011;10279;46.388;8.116;2023-03-01T03:45:57;6.90;;;5.07;;
20241;SDS011;10279;46.388;8.116;2023-03-01T03:48:25;7.10;;;4.60;;
20241;SDS011;10279;46.388;8.116;2023-03-01T03:50:53;6.57;;;4.10;;
20241;SDS011;10279;46.388;8.116;2023-03-01T03:53:22;4.47;;;3.27;;
20241;SDS011;10279;46.388;8.116;2023-03-01T03:55:50;4.97;;;3.30;;
20241;SDS011;10279;46.388;8.116;2023-03-01T03:58:18;4.97;;;3.50;;
20241;SDS011;10279;46.388;8.116;2023-03-01T04:00:47;4.43;;;3.80;;
20241;SDS011;10279;46.388;8.116;2023-03-01T04:03:15;7.30;;;5.23;;
20241;SDS011;10279;46.388;8.116;2023-03-01T04:05:43;9.73;;;6.23;;
20241;SDS011;10279;46.388;8.116;2023-03-01T04:08:11;8.37;;;5.70;;
20241;SDS011;10279;46.388;8.116;2023-03-01T04:10:39;14.27;;;8.03;;
20241;SDS011;10279;46.388;8.116;2023-03-01T04:13:10;14.83;;;8.80;;
20241;SDS011;10279;46.388;8.116;2023-03-01T04:15:38;13.47;;;9.10;;
20241;SDS011;10279;46.388;8.116;2023-03-01T04:18:06;14.43;;;8.17;;
20241;SDS011;10279;46.388;8.116;2023-03-01T04:20:34;10.73;;;7.60;;
20241;SDS011;10279;46.388;8.116;2023-03-01T04:23:06;11.47;;;7.50;;
20241;SDS011;10279;46.388;8.116;2023-03-01T04:25:41;11.67;;;8.10;;
20241;SDS011;10279;46.388;8.116;2023-03-01T04:28:08;10.63;;;7.70;;
20241;SDS011;10279;46.388;8.116;2023-03-01T04:30:37;11.87;;;7.73;;
20241;SDS011;10279;46.388;8.116;2023-03-01T04:33:05;14.00;;;8.73;;
20241;SDS011;10279;46.388;8.116;2023-03-01T04:35:33;12.90;;;8.53;;
20241;SDS011;10279;46.388;8.116;2023-03-01T04:38:04;11.73;;;8.13;;
20241;SDS011;10279;46.388;8.116;2023-03-01T04:40:32;14.17;;;8.87;;
20241;SDS011;10279;46.388;8.116;2023-03-01T04:43:00;12.17;;;7.90;;
20241;SDS011;10279;46.388;8.116;2023-03-01T04:45:27;12.33;;;7.60;;
20241;SDS011;10279;46.388;8.116;2023-03-01T04:47:55;8.47;;;6.07;;
20241;SDS011;10279;46.388;8.116;2023-03-01T04:50:24;9.60;;;5.73;;
20241;SDS011;10279;46.388;8.116;2023-03-01T04:52:52;8.33;;;5.30;;
20241;SDS011;10279;46.388;8.116;2023-03-01T04:55:19;8.47;;;6.10;;
20241;SDS011;10279;46.388;8.116;2023-03-01T04:57:47;10.83;;;6.87;;
20241;SDS011;10279;46.388;8.116;2023-03-01T05:00:14;8.23;;;6.30;;
20241;SDS011;10279;46.388;8.116;2023-03-01T05:02:51;11.87;;;6.80;;
20241;SDS011;10279;46.388;8.116;2023-03-01T05:05:23;7.80;;;5.40;;
20241;SDS011;10279;46.388;8.116;2023-03-01T05:07:53;8.30;;;5.37;;
20241;SDS011;10279;46.388;8.116;2023-03-01T05:10:21;5.17;;;3.87;;
20241;SDS011;10279;46.388;8.116;2023-03-01T05:12:49;6.00;;;4.07;;
20241;SDS011;10279;46.388;8.116;2023-03-01T05:15:18;5.63;;;3.90;;
20241;SDS011;10279;46.388;8.116;2023-03-01T05:17:48;7.57;;;4.63;;
20241;SDS011;10279;46.388;8.116;2023-03-01T05:20:16;4.53;;;3.27;;
20241;SDS011;10279;46.388;8.116;2023-03-01T05:22:43;4.50;;;3.10;;
20241;SDS011;10279;46.388;8.116;2023-03-01T05:25:11;2.90;;;2.40;;
20241;SDS011;10279;46.388;8.116;2023-03-01T05:27:40;3.03;;;2.50;;
20241;SDS011;10279;46.388;8.116;2023-03-01T05:30:08;3.67;;;2.70;;
20241;SDS011;10279;46.388;8.116;2023-03-01T05:32:45;4.03;;;2.30;;
20241;SDS011;10279;46.388;8.116;2023-03-01T05:35:14;2.67;;;1.87;;
20241;SDS011;10279;46.388;8.116;2023-03-01T05:37:42;3.80;;;2.47;;
20241;SDS011;10279;46.388;8.116;2023-03-01T05:40:10;4.10;;;2.50;;
20241;SDS011;10279;46.388;8.116;2023-03-01T05:42:43;5.07;;;2.10;;
20241;SDS011;10279;46.388;8.116;2023-03-01T05:45:11;8.47;;;2.50;;
20241;SDS011;10279;46.388;8.116;2023-03-01T05:47:40;3.67;;;2.30;;
20241;SDS011;10279;46.388;8.116;2023-03-01T05:50:12;4.57;;;2.20;;
20241;SDS011;10279;46.388;8.116;2023-03-01T05:52:40;4.57;;;1.80;;
20241;SDS011;10279;46.388;8.116;2023-03-01T05:55:07;5.10;;;2.20;;
20241;SDS011;10279;46.388;8.116;2023-03-01T05:57:35;6.00;;;2.43;;
20241;SDS011;10279;46.388;8.116;2023-03-01T06:00:03;6.03;;;3.20;;
20241;SDS011;10279;46.388;8.116;2023-03-01T06:02:32;3.67;;;2.40;;
20241;SDS011;10279;46.388;8.116;2023-03-01T06:05:00;4.17;;;2.27;;
20241;SDS011;10279;46.388;8.116;2023-03-01T06:07:27;1.90;;;1.80;;
20241;SDS011;10279;46.388;8.116;2023-03-01T06:09:55;2.77;;;1.90;;
20241;SDS011;10279;46.388;8.116;2023-03-01T06:12:22;1.67;;;1.57;;
20241;SDS011;10279;46.388;8.116;2023-03-01T06:14:49;2.23;;;1.77;;
20241;SDS011;10279;46.388;8.116;2023-03-01T06:17:17;3.07;;;1.80;;
20241;SDS011;10279;46.388;8.116;2023-03-01T06:19:44;3.00;;;1.83;;
20241;SDS011;10279;46.388;8.116;2023-03-01T06:22:13;2.13;;;1.50;;
20241;SDS011;10279;46.388;8.116;2023-03-01T06:24:40;2.67;;;1.70;;
20241;SDS011;10279;46.388;8.116;2023-03-01T06:27:08;2.23;;;1.47;;
20241;SDS011;10279;46.388;8.116;2023-03-01T06:29:35;3.37;;;2.57;;
20241;SDS011;10279;46.388;8.116;2023-03-01T06:32:03;6.37;;;3.27;;
20241;SDS011;10279;46.388;8.116;2023-03-01T06:34:30;4.07;;;2.60;;
20241;SDS011;10279;46.388;8.116;2023-03-01T06:36:58;3.67;;;2.07;;
20241;SDS011;10279;46.388;8.116;2023-03-01T06:39:27;2.87;;;1.77;;
20241;SDS011;10279;46.388;8.116;2023-03-01T06:41:54;3.63;;;1.90;;
20241;SDS011;10279;46.388;8.116;2023-03-01T06:44:22;2.10;;;1.77;;
20241;SDS011;10279;46.388;8.116;2023-03-01T06:46:50;2.27;;;2.07;;
20241;SDS011;10279;46.388;8.116;2023-03-01T06:49:17;2.27;;;1.73;;
20241;SDS011;10279;46.388;8.116;2023-03-01T06:51:46;1.30;;;1.20;;
20241;SDS011;10279;46.388;8.116;2023-03-01T06:54:13;3.17;;;1.30;;
20241;SDS011;10279;46.388;8.116;2023-03-01T06:56:41;2.07;;;1.23;;
20241;SDS011;10279;46.388;8.116;2023-03-01T06:59:09;1.00;;;0.90;;
20241;SDS011;10279;46.388;8.116;2023-03-01T07:01:36;1.10;;;1.00;;
20241;SDS011;10279;46.388;8.116;2023-03-01T07:04:05;1.77;;;0.90;;
20241;SDS011;10279;46.388;8.116;2023-03-01T07:06:32;8.93;;;3.90;;
20241;SDS011;10279;46.388;8.116;2023-03-01T07:09:00;35.63;;;14.57;;
20241;SDS011;10279;46.388;8.116;2023-03-01T07:11:27;5.93;;;3.03;;
20241;SDS011;10279;46.388;8.116;2023-03-01T07:13:54;2.47;;;1.57;;
20241;SDS011;10279;46.388;8.116;2023-03-01T07:16:22;5.13;;;1.30;;
20241;SDS011;10279;46.388;8.116;2023-03-01T07:18:49;2.23;;;1.47;;
20241;SDS011;10279;46.388;8.116;2023-03-01T07:21:17;2.33;;;1.60;;
20241;SDS011;10279;46.388;8.116;2023-03-01T07:23:46;1.57;;;1.03;;
20241;SDS011;10279;46.388;8.116;2023-03-01T07:26:14;1.10;;;0.90;;
20241;SDS011;10279;46.388;8.116;2023-03-01T07:28:41;1.50;;;1.00;;
20241;SDS011;10279;46.388;8.116;2023-03-01T07:31:09;1.83;;;0.93;;
20241;SDS011;10279;46.388;8.116;2023-03-01T07:33:36;1.27;;;0.93;;
20241;SDS011;10279;46.388;8.116;2023-03-01T07:36:04;1.60;;;0.87;;
20241;SDS011;10279;46.388;8.116;2023-03-01T07:38:32;0.87;;;0.87;;
20241;SDS011;10279;46.388;8.116;2023-03-01T07:41:00;1.97;;;0.90;;
20241;SDS011;10279;46.388;8.116;2023-03-01T07:43:28;1.53;;;1.10;;
20241;SDS011;10279;46.388;8.116;2023-03-01T07:45:59;1.27;;;0.80;;
20241;SDS011;10279;46.388;8.116;2023-03-01T07:48:27;1.57;;;1.23;;
20241;SDS011;10279;46.388;8.116;2023-03-01T07:50:57;2.27;;;1.37;;
20241;SDS011;10279;46.388;8.116;2023-03-01T07:53:25;1.90;;;1.40;;
20241;SDS011;10279;46.388;8.116;2023-03-01T07:56:06;3.07;;;1.30;;
20241;SDS011;10279;46.388;8.116;2023-03-01T07:58:34;4.17;;;1.40;;
20241;SDS011;10279;46.388;8.116;2023-03-01T08:01:02;6.60;;;2.77;;
20241;SDS011;10279;46.388;8.116;2023-03-01T08:03:30;4.33;;;3.20;;
20241;SDS011;10279;46.388;8.116;2023-03-01T08:06:01;3.83;;;2.40;;
20241;SDS011;10279;46.388;8.116;2023-03-01T08:08:29;3.20;;;1.70;;
20241;SDS011;10279;46.388;8.116;2023-03-01T08:10:57;3.23;;;1.60;;
20241;SDS011;10279;46.388;8.116;2023-03-01T08:13:25;2.87;;;1.20;;
20241;SDS011;10279;46.388;8.116;2023-03-01T08:15:52;1.00;;;0.93;;
20241;SDS011;10279;46.388;8.116;2023-03-01T08:18:20;3.77;;;2.23;;
20241;SDS011;10279;46.388;8.116;2023-03-01T08:20:48;2.03;;;1.80;;
20241;SDS011;10279;46.388;8.116;2023-03-01T08:23:15;3.03;;;1.50;;
20241;SDS011;10279;46.388;8.116;2023-03-01T08:25:43;1.77;;;1.50;;
20241;SDS011;10279;46.388;8.116;2023-03-01T08:28:10;3.00;;;2.23;;
20241;SDS011;10279;46.388;8.116;2023-03-01T08:30:37;3.57;;;1.50;;
20241;SDS011;10279;46.388;8.116;2023-03-01T08:33:05;2.47;;;1.80;;
20241;SDS011;10279;46.388;8.116;2023-03-01T08:35:32;1.73;;;1.47;;
20241;SDS011;10279;46.388;8.116;2023-03-01T08:37:59;2.73;;;1.33;;
20241;SDS011;10279;46.388;8.116;2023-03-01T08:40:27;2.50;;;1.03;;
20241;SDS011;10279;46.388;8.116;2023-03-01T08:42:54;1.40;;;1.20;;
20241;SDS011;10279;46.388;8.116;2023-03-01T08:45:22;2.17;;;1.20;;
20241;SDS011;10279;46.388;8.116;2023-03-01T08:47:51;0.87;;;0.87;;
20241;SDS011;10279;46.388;8.116;2023-03-01T08:50:19;0.90;;;0.80;;
20241;SDS011;10279;46.388;8.116;2023-03-01T08:52:47;1.80;;;0.90;;
20241;SDS011;10279;46.388;8.116;2023-03-01T08:55:14;1.23;;;0.80;;
20241;SDS011;10279;46.388;8.116;2023-03-01T08:57:43;0.70;;;0.70;;
20241;SDS011;10279;46.388;8.116;2023-03-01T09:00:11;1.37;;;0.80;;
20241;SDS011;10279;46.388;8.116;2023-03-01T09:02:39;0.93;;;0.90;;
20241;SDS011;10279;46.388;8.116;2023-03-01T09:05:06;1.50;;;1.03;;
20241;SDS011;10279;46.388;8.116;2023-03-01T09:07:34;0.90;;;0.80;;
20241;SDS011;10279;46.388;8.116;2023-03-01T09:10:01;2.30;;;1.13;;
20241;SDS011;10279;46.388;8.116;2023-03-01T09:12:29;8.60;;;1.10;;
20241;SDS011;10279;46.388;8.116;2023-03-01T09:14:56;3.97;;;0.80;;
20241;SDS011;10279;46.388;8.116;2023-03-01T09:17:23;1.00;;;0.90;;
20241;SDS011;10279;46.388;8.116;2023-03-01T09:19:51;0.93;;;0.80;;
20241;SDS011;10279;46.388;8.116;2023-03-01T09:22:18;1.17;;;0.50;;
20241;SDS011;10279;46.388;8.116;2023-03-01T09:24:45;0.57;;;0.43;;
20241;SDS011;10279;46.388;8.116;2023-03-01T09:27:13;0.70;;;0.57;;
20241;SDS011;10279;46.388;8.116;2023-03-01T09:29:41;0.60;;;0.60;;
20241;SDS011;10279;46.388;8.116;2023-03-01T09:32:08;1.10;;;0.80;;
20241;SDS011;10279;46.388;8.116;2023-03-01T09:34:36;3.83;;;0.90;;
20241;SDS011;10279;46.388;8.116;2023-03-01T09:37:23;1.57;;;1.00;;
20241;SDS011;10279;46.388;8.116;2023-03-01T09:39:51;2.00;;;0.60;;
20241;SDS011;10279;46.388;8.116;2023-03-01T09:42:18;0.30;;;0.30;;
20241;SDS011;10279;46.388;8.116;2023-03-01T09:44:47;0.30;;;0.30;;
20241;SDS011;10279;46.388;8.116;2023-03-01T09:47:20;0.37;;;0.37;;
20241;SDS011;10279;46.388;8.116;2023-03-01T09:52:41;2.40;;;0.60;;
20241;SDS011;10279;46.388;8.116;2023-03-01T09:55:17;0.30;;;0.30;;
20241;SDS011;10279;46.388;8.116;2023-03-01T09:57:52;12.23;;;6.37;;
20241;SDS011;10279;46.388;8.116;2023-03-01T10:03:08;3.23;;;1.80;;
20241;SDS011;10279;46.388;8.116;2023-03-01T10:05:41;0.50;;;0.50;;
20241;SDS011;10279;46.388;8.116;2023-03-01T10:10:39;0.53;;;0.40;;
20241;SDS011;10279;46.388;8.116;2023-03-01T10:16:23;0.30;;;0.20;;
20241;SDS011;10279;46.388;8.116;2023-03-01T10:18:43;0.63;;;0.50;;
20241;SDS011;10279;46.388;8.116;2023-03-01T10:21:19;0.73;;;0.53;;
20241;SDS011;10279;46.388;8.116;2023-03-01T10:23:49;0.43;;;0.33;;
20241;SDS011;10279;46.388;8.116;2023-03-01T10:26:36;0.60;;;0.50;;
20241;SDS011;10279;46.388;8.116;2023-03-01T10:29:07;0.67;;;0.50;;
20241;SDS011;10279;46.388;8.116;2023-03-01T10:31:45;0.80;;;0.33;;
20241;SDS011;10279;46.388;8.116;2023-03-01T10:36:41;0.30;;;0.30;;
20241;SDS011;10279;46.388;8.116;2023-03-01T10:39:13;0.43;;;0.30;;
20241;SDS011;10279;46.388;8.116;2023-03-01T10:41:52;0.30;;;0.30;;
20241;SDS011;10279;46.388;8.116;2023-03-01T10:47:04;1.70;;;0.50;;
20241;SDS011;10279;46.388;8.116;2023-03-01T10:49:31;1.17;;;0.30;;
20241;SDS011;10279;46.388;8.116;2023-03-01T10:51:59;1.93;;;0.30;;
20241;SDS011;10279;46.388;8.116;2023-03-01T10:54:38;0.80;;;0.50;;
20241;SDS011;10279;46.388;8.116;2023-03-01T10:57:10;0.33;;;0.33;;
20241;SDS011;10279;46.388;8.116;2023-03-01T10:59:51;0.40;;;0.40;;
20241;SDS011;10279;46.388;8.116;2023-03-01T11:02:28;0.43;;;0.33;;
20241;SDS011;10279;46.388;8.116;2023-03-01T11:07:24;0.93;;;0.60;;
20241;SDS011;10279;46.388;8.116;2023-03-01T11:09:51;0.30;;;0.30;;
20241;SDS011;10279;46.388;8.116;2023-03-01T11:12:20;1.03;;;0.90;;
20241;SDS011;10279;46.388;8.116;2023-03-01T11:14:52;1.17;;;0.73;;
20241;SDS011;10279;46.388;8.116;2023-03-01T11:17:27;0.60;;;0.60;;
20241;SDS011;10279;46.388;8.116;2023-03-01T11:20:20;1.90;;;0.60;;
20241;SDS011;10279;46.388;8.116;2023-03-01T11:22:51;0.87;;;0.73;;
20241;SDS011;10279;46.388;8.116;2023-03-01T11:25:20;1.53;;;0.83;;
20241;SDS011;10279;46.388;8.116;2023-03-01T11:27:50;0.70;;;0.67;;
20241;SDS011;10279;46.388;8.116;2023-03-01T11:35:35;1.30;;;0.60;;
20241;SDS011;10279;46.388;8.116;2023-03-01T11:38:09;0.97;;;0.50;;
20241;SDS011;10279;46.388;8.116;2023-03-01T11:40:50;0.30;;;0.30;;
20241;SDS011;10279;46.388;8.116;2023-03-01T11:43:26;0.43;;;0.43;;
20241;SDS011;10279;46.388;8.116;2023-03-01T11:51:38;2.77;;;0.70;;
20241;SDS011;10279;46.388;8.116;2023-03-01T11:54:06;1.33;;;1.10;;
20241;SDS011;10279;46.388;8.116;2023-03-01T11:56:46;1.70;;;1.30;;
20241;SDS011;10279;46.388;8.116;2023-03-01T12:15:10;6.47;;;4.23;;
20241;SDS011;10279;46.388;8.116;2023-03-01T12:25:48;3.57;;;3.27;;
20241;SDS011;10279;46.388;8.116;2023-03-01T12:38:42;5.33;;;3.37;;
20241;SDS011;10279;46.388;8.116;2023-03-01T12:49:20;3.87;;;2.53;;
20241;SDS011;10279;46.388;8.116;2023-03-01T12:51:59;4.00;;;3.27;;
20241;SDS011;10279;46.388;8.116;2023-03-01T12:54:31;3.03;;;2.50;;
20241;SDS011;10279;46.388;8.116;2023-03-01T12:57:02;4.03;;;3.20;;
20241;SDS011;10279;46.388;8.116;2023-03-01T13:05:15;9.13;;;3.57;;
20241;SDS011;10279;46.388;8.116;2023-03-01T13:10:31;5.23;;;1.90;;
20241;SDS011;10279;46.388;8.116;2023-03-01T13:13:02;4.23;;;1.60;;
20241;SDS011;10279;46.388;8.116;2023-03-01T13:18:02;3.33;;;2.60;;
20241;SDS011;10279;46.388;8.116;2023-03-01T13:20:31;4.13;;;2.90;;
20241;SDS011;10279;46.388;8.116;2023-03-01T13:23:05;4.93;;;3.70;;
20241;SDS011;10279;46.388;8.116;2023-03-01T13:25:34;4.67;;;3.00;;
20241;SDS011;10279;46.388;8.116;2023-03-01T13:28:51;5.07;;;3.67;;
20241;SDS011;10279;46.388;8.116;2023-03-01T13:30:58;4.63;;;3.70;;
20241;SDS011;10279;46.388;8.116;2023-03-01T13:33:33;6.37;;;4.80;;
20241;SDS011;10279;46.388;8.116;2023-03-01T13:36:02;8.43;;;5.27;;
20241;SDS011;10279;46.388;8.116;2023-03-01T13:38:37;5.97;;;4.73;;
20241;SDS011;10279;46.388;8.116;2023-03-01T13:41:05;8.30;;;4.93;;
20241;SDS011;10279;46.388;8.116;2023-03-01T13:43:36;5.57;;;3.97;;
20241;SDS011;10279;46.388;8.116;2023-03-01T13:46:08;7.10;;;4.40;;
20241;SDS011;10279;46.388;8.116;2023-03-01T13:48:37;5.73;;;2.63;;
20241;SDS011;10279;46.388;8.116;2023-03-01T13:51:07;7.37;;;5.23;;
20241;SDS011;10279;46.388;8.116;2023-03-01T13:53:37;9.90;;;6.07;;
20241;SDS011;10279;46.388;8.116;2023-03-01T13:56:13;6.10;;;5.23;;
20241;SDS011;10279;46.388;8.116;2023-03-01T13:58:46;6.70;;;5.20;;
20241;SDS011;10279;46.388;8.116;2023-03-01T14:01:25;7.90;;;5.60;;
20241;SDS011;10279;46.388;8.116;2023-03-01T14:03:53;9.20;;;5.03;;
20241;SDS011;10279;46.388;8.116;2023-03-01T14:09:00;9.73;;;5.50;;
20241;SDS011;10279;46.388;8.116;2023-03-01T14:21:33;6.80;;;4.27;;
20241;SDS011;10279;46.388;8.116;2023-03-01T14:24:02;6.10;;;4.97;;
20241;SDS011;10279;46.388;8.116;2023-03-01T14:26:30;8.00;;;4.50;;
20241;SDS011;10279;46.388;8.116;2023-03-01T14:28:59;8.83;;;5.40;;
20241;SDS011;10279;46.388;8.116;2023-03-01T14:34:04;6.70;;;4.80;;
20241;SDS011;10279;46.388;8.116;2023-03-01T14:36:32;6.63;;;3.93;;
20241;SDS011;10279;46.388;8.116;2023-03-01T14:39:00;9.43;;;4.30;;
20241;SDS011;10279;46.388;8.116;2023-03-01T14:41:33;7.23;;;4.63;;
20241;SDS011;10279;46.388;8.116;2023-03-01T14:44:03;10.30;;;4.60;;
20241;SDS011;10279;46.388;8.116;2023-03-01T14:46:36;7.43;;;4.67;;
20241;SDS011;10279;46.388;8.116;2023-03-01T14:51:38;8.77;;;4.20;;
20241;SDS011;10279;46.388;8.116;2023-03-01T14:54:20;5.83;;;4.60;;
20241;SDS011;10279;46.388;8.116;2023-03-01T14:56:48;10.10;;;4.00;;
20241;SDS011;10279;46.388;8.116;2023-03-01T14:59:15;7.40;;;4.93;;
20241;SDS011;10279;46.388;8.116;2023-03-01T15:01:42;6.87;;;4.27;;
20241;SDS011;10279;46.388;8.116;2023-03-01T15:04:10;6.37;;;4.07;;
20241;SDS011;10279;46.388;8.116;2023-03-01T15:06:39;6.63;;;4.20;;
20241;SDS011;10279;46.388;8.116;2023-03-01T15:09:06;7.17;;;4.87;;
20241;SDS011;10279;46.388;8.116;2023-03-01T15:11:34;9.57;;;4.97;;
20241;SDS011;10279;46.388;8.116;2023-03-01T15:14:03;5.10;;;4.40;;
20241;SDS011;10279;46.388;8.116;2023-03-01T15:16:50;9.77;;;4.83;;
20241;SDS011;10279;46.388;8.116;2023-03-01T15:19:17;9.10;;;4.80;;
20241;SDS011;10279;46.388;8.116;2023-03-01T15:21:46;5.97;;;4.70;;
20241;SDS011;10279;46.388;8.116;2023-03-01T15:24:16;11.03;;;4.93;;
20241;SDS011;10279;46.388;8.116;2023-03-01T15:26:53;8.70;;;5.00;;
20241;SDS011;10279;46.388;8.116;2023-03-01T15:29:25;6.87;;;4.50;;
20241;SDS011;10279;46.388;8.116;2023-03-01T15:32:00;10.00;;;4.50;;
20241;SDS011;10279;46.388;8.116;2023-03-01T15:34:31;7.17;;;4.63;;
20241;SDS011;10279;46.388;8.116;2023-03-01T15:37:00;11.00;;;4.60;;
20241;SDS011;10279;46.388;8.116;2023-03-01T15:42:05;10.67;;;4.57;;
20241;SDS011;10279;46.388;8.116;2023-03-01T15:44:34;7.17;;;4.47;;
20241;SDS011;10279;46.388;8.116;2023-03-01T15:47:29;6.57;;;4.80;;
20241;SDS011;10279;46.388;8.116;2023-03-01T15:49:57;9.50;;;4.50;;
20241;SDS011;10279;46.388;8.116;2023-03-01T15:52:27;8.60;;;5.17;;
20241;SDS011;10279;46.388;8.116;2023-03-01T15:54:56;14.30;;;5.87;;
20241;SDS011;10279;46.388;8.116;2023-03-01T15:57:24;15.30;;;6.97;;
20241;SDS011;10279;46.388;8.116;2023-03-01T15:59:51;15.13;;;7.57;;
20241;SDS011;10279;46.388;8.116;2023-03-01T16:02:22;22.90;;;8.73;;
20241;SDS011;10279;46.388;8.116;2023-03-01T16:04:50;13.77;;;8.17;;
20241;SDS011;10279;46.388;8.116;2023-03-01T16:07:20;18.33;;;9.63;;
20241;SDS011;10279;46.388;8.116;2023-03-01T16:09:47;15.87;;;9.47;;
20241;SDS011;10279;46.388;8.116;2023-03-01T16:12:15;17.90;;;9.73;;
20241;SDS011;10279;46.388;8.116;2023-03-01T16:14:43;27.90;;;10.77;;
20241;SDS011;10279;46.388;8.116;2023-03-01T16:17:11;17.23;;;10.27;;
20241;SDS011;10279;46.388;8.116;2023-03-01T16:19:38;17.97;;;10.37;;
20241;SDS011;10279;46.388;8.116;2023-03-01T16:22:10;14.20;;;9.93;;
20241;SDS011;10279;46.388;8.116;2023-03-01T16:24:38;24.30;;;10.83;;
20241;SDS011;10279;46.388;8.116;2023-03-01T16:27:06;17.70;;;10.93;;
20241;SDS011;10279;46.388;8.116;2023-03-01T16:29:34;21.60;;;11.50;;
20241;SDS011;10279;46.388;8.116;2023-03-01T16:32:02;20.50;;;12.40;;
20241;SDS011;10279;46.388;8.116;2023-03-01T16:34:30;22.87;;;12.47;;
20241;SDS011;10279;46.388;8.116;2023-03-01T16:36:57;22.47;;;12.43;;
20241;SDS011;10279;46.388;8.116;2023-03-01T16:39:24;19.50;;;13.23;;
20241;SDS011;10279;46.388;8.116;2023-03-01T16:41:52;23.93;;;13.43;;
20241;SDS011;10279;46.388;8.116;2023-03-01T16:44:19;24.93;;;13.93;;
20241;SDS011;10279;46.388;8.116;2023-03-01T16:46:47;26.03;;;14.10;;
20241;SDS011;10279;46.388;8.116;2023-03-01T16:49:14;25.00;;;13.97;;